sensor_id;sensor_type;location;lat;lon;timestamp;P1;durP1;ratioP1;P2;durP2;ratioP2
291;SDS011;23311;48.776;9.162;2023-07-28T00:00:08;4.70;;;3.87;;
291;SDS011;23311;48.776;9.162;2023-07-28T00:02:38;4.17;;;3.30;;
291;SDS011;23311;48.776;9.162;2023-07-28T00:05:07;6.50;;;4.30;;
291;SDS011;23311;48.776;9.162;2023-07-28T00:07:35;3.67;;;3.50;;
291;SDS011;23311;48.776;9.162;2023-07-28T00:10:03;3.30;;;3.10;;
291;SDS011;23311;48.776;9.162;2023-07-28T00:12:32;3.73;;;2.87;;
291;SDS011;23311;48.776;9.162;2023-07-28T00:15:01;5.50;;;3.23;;
291;SDS011;23311;48.776;9.162;2023-07-28T00:17:29;3.87;;;3.07;;
291;SDS011;23311;48.776;9.162;2023-07-28T00:19:59;3.93;;;3.00;;
291;SDS011;23311;48.776;9.162;2023-07-28T00:22:27;3.90;;;3.17;;
291;SDS011;23311;48.776;9.162;2023-07-28T00:24:55;4.07;;;3.40;;
291;SDS011;23311;48.776;9.162;2023-07-28T00:27:23;3.53;;;2.80;;
291;SDS011;23311;48.776;9.162;2023-07-28T00:29:51;4.20;;;3.40;;
291;SDS011;23311;48.776;9.162;2023-07-28T00:32:20;3.47;;;2.83;;
291;SDS011;23311;48.776;9.162;2023-07-28T00:34:48;3.60;;;2.73;;
291;SDS011;23311;48.776;9.162;2023-07-28T00:37:17;3.67;;;2.80;;
291;SDS011;23311;48.776;9.162;2023-07-28T00:39:46;3.67;;;3.10;;
291;SDS011;23311;48.776;9.162;2023-07-28T00:42:14;3.50;;;3.03;;
291;SDS011;23311;48.776;9.162;2023-07-28T00:44:42;2.80;;;2.60;;
291;SDS011;23311;48.776;9.162;2023-07-28T00:47:10;3.40;;;2.87;;
291;SDS011;23311;48.776;9.162;2023-07-28T00:49:39;3.37;;;3.17;;
291;SDS011;23311;48.776;9.162;2023-07-28T00:52:08;3.47;;;2.60;;
291;SDS011;23311;48.776;9.162;2023-07-28T00:54:37;3.50;;;2.83;;
291;SDS011;23311;48.776;9.162;2023-07-28T00:57:05;3.33;;;2.93;;
291;SDS011;23311;48.776;9.162;2023-07-28T00:59:34;4.27;;;3.10;;
291;SDS011;23311;48.776;9.162;2023-07-28T01:02:02;3.10;;;2.83;;
291;SDS011;23311;48.776;9.162;2023-07-28T01:04:30;3.03;;;2.70;;
291;SDS011;23311;48.776;9.162;2023-07-28T01:07:01;3.43;;;2.83;;
291;SDS011;23311;48.776;9.162;2023-07-28T01:09:34;3.50;;;3.07;;
291;SDS011;23311;48.776;9.162;2023-07-28T01:12:09;2.60;;;2.40;;
291;SDS011;23311;48.776;9.162;2023-07-28T01:14:37;3.27;;;2.53;;
291;SDS011;23311;48.776;9.162;2023-07-28T01:17:05;3.20;;;2.80;;
291;SDS011;23311;48.776;9.162;2023-07-28T01:19:33;3.83;;;3.10;;
291;SDS011;23311;48.776;9.162;2023-07-28T01:22:10;3.30;;;3.00;;
291;SDS011;23311;48.776;9.162;2023-07-28T01:24:55;3.03;;;2.43;;
291;SDS011;23311;48.776;9.162;2023-07-28T01:27:34;2.73;;;2.50;;
291;SDS011;23311;48.776;9.162;2023-07-28T01:30:04;3.60;;;2.90;;
291;SDS011;23311;48.776;9.162;2023-07-28T01:32:33;3.13;;;2.33;;
291;SDS011;23311;48.776;9.162;2023-07-28T01:35:01;3.20;;;2.57;;
291;SDS011;23311;48.776;9.162;2023-07-28T01:37:29;2.70;;;2.40;;
291;SDS011;23311;48.776;9.162;2023-07-28T01:39:57;4.33;;;2.70;;
291;SDS011;23311;48.776;9.162;2023-07-28T01:42:25;2.83;;;2.63;;
291;SDS011;23311;48.776;9.162;2023-07-28T01:44:55;3.50;;;3.30;;
291;SDS011;23311;48.776;9.162;2023-07-28T01:47:23;2.90;;;2.60;;
291;SDS011;23311;48.776;9.162;2023-07-28T01:49:51;3.57;;;3.20;;
291;SDS011;23311;48.776;9.162;2023-07-28T01:52:19;3.70;;;3.60;;
291;SDS011;23311;48.776;9.162;2023-07-28T01:54:49;3.90;;;3.17;;
291;SDS011;23311;48.776;9.162;2023-07-28T01:57:17;3.60;;;3.40;;
291;SDS011;23311;48.776;9.162;2023-07-28T01:59:45;3.33;;;2.50;;
291;SDS011;23311;48.776;9.162;2023-07-28T02:02:15;2.97;;;2.73;;
291;SDS011;23311;48.776;9.162;2023-07-28T02:04:43;2.80;;;2.47;;
291;SDS011;23311;48.776;9.162;2023-07-28T02:07:11;5.00;;;3.83;;
291;SDS011;23311;48.776;9.162;2023-07-28T02:09:39;4.33;;;3.00;;
291;SDS011;23311;48.776;9.162;2023-07-28T02:12:07;3.47;;;2.90;;
291;SDS011;23311;48.776;9.162;2023-07-28T02:14:35;5.23;;;3.67;;
291;SDS011;23311;48.776;9.162;2023-07-28T02:17:03;3.93;;;2.77;;
291;SDS011;23311;48.776;9.162;2023-07-28T02:19:33;2.67;;;2.40;;
291;SDS011;23311;48.776;9.162;2023-07-28T02:22:01;3.40;;;2.30;;
291;SDS011;23311;48.776;9.162;2023-07-28T02:24:30;3.80;;;2.43;;
291;SDS011;23311;48.776;9.162;2023-07-28T02:26:58;2.90;;;2.30;;
291;SDS011;23311;48.776;9.162;2023-07-28T02:29:26;2.70;;;2.47;;
291;SDS011;23311;48.776;9.162;2023-07-28T02:31:54;4.43;;;2.90;;
291;SDS011;23311;48.776;9.162;2023-07-28T02:34:22;3.73;;;2.60;;
291;SDS011;23311;48.776;9.162;2023-07-28T02:36:52;2.70;;;2.60;;
291;SDS011;23311;48.776;9.162;2023-07-28T02:39:20;4.40;;;2.90;;
291;SDS011;23311;48.776;9.162;2023-07-28T02:41:48;3.07;;;2.87;;
291;SDS011;23311;48.776;9.162;2023-07-28T02:44:16;3.00;;;2.70;;
291;SDS011;23311;48.776;9.162;2023-07-28T02:46:44;4.30;;;2.43;;
291;SDS011;23311;48.776;9.162;2023-07-28T02:49:12;3.77;;;2.60;;
291;SDS011;23311;48.776;9.162;2023-07-28T02:51:40;3.80;;;2.90;;
291;SDS011;23311;48.776;9.162;2023-07-28T02:54:10;2.90;;;2.23;;
291;SDS011;23311;48.776;9.162;2023-07-28T02:56:38;3.77;;;2.43;;
291;SDS011;23311;48.776;9.162;2023-07-28T02:59:06;3.33;;;2.67;;
291;SDS011;23311;48.776;9.162;2023-07-28T03:01:34;2.60;;;2.33;;
291;SDS011;23311;48.776;9.162;2023-07-28T03:04:03;3.30;;;2.63;;
291;SDS011;23311;48.776;9.162;2023-07-28T03:06:31;3.40;;;2.90;;
291;SDS011;23311;48.776;9.162;2023-07-28T03:08:59;3.33;;;2.40;;
291;SDS011;23311;48.776;9.162;2023-07-28T03:11:29;2.47;;;2.37;;
291;SDS011;23311;48.776;9.162;2023-07-28T03:13:57;2.90;;;2.40;;
291;SDS011;23311;48.776;9.162;2023-07-28T03:16:25;2.40;;;2.30;;
291;SDS011;23311;48.776;9.162;2023-07-28T03:18:53;4.60;;;2.90;;
291;SDS011;23311;48.776;9.162;2023-07-28T03:21:22;3.97;;;3.00;;
291;SDS011;23311;48.776;9.162;2023-07-28T03:23:50;3.50;;;3.33;;
291;SDS011;23311;48.776;9.162;2023-07-28T03:26:18;6.00;;;3.70;;
291;SDS011;23311;48.776;9.162;2023-07-28T03:28:47;4.63;;;4.33;;
291;SDS011;23311;48.776;9.162;2023-07-28T03:31:15;5.17;;;4.37;;
291;SDS011;23311;48.776;9.162;2023-07-28T03:33:43;3.60;;;3.43;;
291;SDS011;23311;48.776;9.162;2023-07-28T03:36:11;4.13;;;3.77;;
291;SDS011;23311;48.776;9.162;2023-07-28T03:38:40;5.50;;;3.50;;
291;SDS011;23311;48.776;9.162;2023-07-28T03:41:08;4.17;;;3.90;;
291;SDS011;23311;48.776;9.162;2023-07-28T03:43:36;3.37;;;3.10;;
291;SDS011;23311;48.776;9.162;2023-07-28T03:46:05;3.80;;;2.80;;
291;SDS011;23311;48.776;9.162;2023-07-28T03:48:34;4.27;;;3.50;;
291;SDS011;23311;48.776;9.162;2023-07-28T03:51:02;3.07;;;2.80;;
291;SDS011;23311;48.776;9.162;2023-07-28T03:53:30;5.57;;;2.73;;
291;SDS011;23311;48.776;9.162;2023-07-28T03:56:01;3.47;;;3.03;;
291;SDS011;23311;48.776;9.162;2023-07-28T03:58:30;3.43;;;2.93;;
291;SDS011;23311;48.776;9.162;2023-07-28T04:00:58;4.53;;;2.80;;
291;SDS011;23311;48.776;9.162;2023-07-28T04:03:27;3.10;;;2.90;;
291;SDS011;23311;48.776;9.162;2023-07-28T04:05:55;3.43;;;2.67;;
291;SDS011;23311;48.776;9.162;2023-07-28T04:08:23;2.87;;;2.67;;
291;SDS011;23311;48.776;9.162;2023-07-28T04:10:51;3.80;;;3.23;;
291;SDS011;23311;48.776;9.162;2023-07-28T04:13:19;3.47;;;3.07;;
291;SDS011;23311;48.776;9.162;2023-07-28T04:15:48;4.63;;;3.30;;
291;SDS011;23311;48.776;9.162;2023-07-28T04:18:16;3.80;;;2.93;;
291;SDS011;23311;48.776;9.162;2023-07-28T04:20:46;3.83;;;3.33;;
291;SDS011;23311;48.776;9.162;2023-07-28T04:23:14;5.93;;;3.03;;
291;SDS011;23311;48.776;9.162;2023-07-28T04:25:42;5.00;;;3.90;;
291;SDS011;23311;48.776;9.162;2023-07-28T04:28:10;5.10;;;3.13;;
291;SDS011;23311;48.776;9.162;2023-07-28T04:30:38;4.77;;;3.57;;
291;SDS011;23311;48.776;9.162;2023-07-28T04:33:06;4.90;;;3.20;;
291;SDS011;23311;48.776;9.162;2023-07-28T04:35:34;4.00;;;2.97;;
291;SDS011;23311;48.776;9.162;2023-07-28T04:38:03;4.33;;;3.53;;
291;SDS011;23311;48.776;9.162;2023-07-28T04:40:31;3.30;;;3.10;;
291;SDS011;23311;48.776;9.162;2023-07-28T04:42:59;3.60;;;2.90;;
291;SDS011;23311;48.776;9.162;2023-07-28T04:45:28;2.97;;;2.73;;
291;SDS011;23311;48.776;9.162;2023-07-28T04:47:56;2.90;;;2.67;;
291;SDS011;23311;48.776;9.162;2023-07-28T04:50:24;3.77;;;2.70;;
291;SDS011;23311;48.776;9.162;2023-07-28T04:52:52;6.30;;;3.50;;
291;SDS011;23311;48.776;9.162;2023-07-28T04:55:22;5.97;;;3.50;;
291;SDS011;23311;48.776;9.162;2023-07-28T04:57:50;5.10;;;3.90;;
291;SDS011;23311;48.776;9.162;2023-07-28T05:00:18;4.07;;;3.57;;
291;SDS011;23311;48.776;9.162;2023-07-28T05:02:46;6.57;;;4.00;;
291;SDS011;23311;48.776;9.162;2023-07-28T05:05:15;4.20;;;3.23;;
291;SDS011;23311;48.776;9.162;2023-07-28T05:07:43;3.87;;;3.50;;
291;SDS011;23311;48.776;9.162;2023-07-28T05:10:12;4.10;;;3.50;;
291;SDS011;23311;48.776;9.162;2023-07-28T05:12:42;3.60;;;3.40;;
291;SDS011;23311;48.776;9.162;2023-07-28T05:15:10;5.93;;;3.50;;
291;SDS011;23311;48.776;9.162;2023-07-28T05:17:38;4.37;;;4.07;;
291;SDS011;23311;48.776;9.162;2023-07-28T05:20:07;3.73;;;3.53;;
291;SDS011;23311;48.776;9.162;2023-07-28T05:22:35;3.40;;;3.20;;
291;SDS011;23311;48.776;9.162;2023-07-28T05:25:04;5.37;;;3.63;;
291;SDS011;23311;48.776;9.162;2023-07-28T05:27:33;3.93;;;3.73;;
291;SDS011;23311;48.776;9.162;2023-07-28T05:30:03;7.17;;;4.10;;
291;SDS011;23311;48.776;9.162;2023-07-28T05:32:32;5.17;;;4.40;;
291;SDS011;23311;48.776;9.162;2023-07-28T05:35:00;5.00;;;4.47;;
291;SDS011;23311;48.776;9.162;2023-07-28T05:37:28;6.60;;;5.20;;
291;SDS011;23311;48.776;9.162;2023-07-28T05:39:56;6.17;;;4.73;;
291;SDS011;23311;48.776;9.162;2023-07-28T05:42:25;6.40;;;5.47;;
291;SDS011;23311;48.776;9.162;2023-07-28T05:44:53;5.77;;;4.90;;
291;SDS011;23311;48.776;9.162;2023-07-28T05:47:23;5.07;;;4.77;;
291;SDS011;23311;48.776;9.162;2023-07-28T05:49:51;5.33;;;4.20;;
291;SDS011;23311;48.776;9.162;2023-07-28T05:52:20;4.97;;;4.30;;
291;SDS011;23311;48.776;9.162;2023-07-28T05:54:48;4.93;;;4.23;;
291;SDS011;23311;48.776;9.162;2023-07-28T05:57:17;5.50;;;4.33;;
291;SDS011;23311;48.776;9.162;2023-07-28T05:59:47;4.90;;;4.50;;
291;SDS011;23311;48.776;9.162;2023-07-28T06:02:16;8.37;;;4.60;;
291;SDS011;23311;48.776;9.162;2023-07-28T06:04:46;5.20;;;3.93;;
291;SDS011;23311;48.776;9.162;2023-07-28T06:07:16;6.03;;;4.70;;
291;SDS011;23311;48.776;9.162;2023-07-28T06:09:46;6.90;;;5.50;;
291;SDS011;23311;48.776;9.162;2023-07-28T06:12:14;6.70;;;5.37;;
291;SDS011;23311;48.776;9.162;2023-07-28T06:14:42;6.33;;;4.40;;
291;SDS011;23311;48.776;9.162;2023-07-28T06:17:14;4.67;;;4.20;;
291;SDS011;23311;48.776;9.162;2023-07-28T06:19:42;5.40;;;4.70;;
291;SDS011;23311;48.776;9.162;2023-07-28T06:22:11;6.50;;;4.97;;
291;SDS011;23311;48.776;9.162;2023-07-28T06:24:39;6.27;;;4.90;;
291;SDS011;23311;48.776;9.162;2023-07-28T06:27:08;10.33;;;5.27;;
291;SDS011;23311;48.776;9.162;2023-07-28T06:29:36;4.83;;;4.53;;
291;SDS011;23311;48.776;9.162;2023-07-28T06:32:05;5.10;;;4.83;;
291;SDS011;23311;48.776;9.162;2023-07-28T06:34:33;5.33;;;5.10;;
291;SDS011;23311;48.776;9.162;2023-07-28T06:37:02;5.63;;;5.00;;
291;SDS011;23311;48.776;9.162;2023-07-28T06:39:34;5.50;;;4.43;;
291;SDS011;23311;48.776;9.162;2023-07-28T06:42:02;5.17;;;4.53;;
291;SDS011;23311;48.776;9.162;2023-07-28T06:44:31;7.37;;;4.50;;
291;SDS011;23311;48.776;9.162;2023-07-28T06:46:59;6.10;;;4.87;;
291;SDS011;23311;48.776;9.162;2023-07-28T06:49:27;4.77;;;4.47;;
291;SDS011;23311;48.776;9.162;2023-07-28T06:51:55;5.77;;;5.37;;
291;SDS011;23311;48.776;9.162;2023-07-28T06:54:24;6.73;;;4.80;;
291;SDS011;23311;48.776;9.162;2023-07-28T06:56:53;5.17;;;4.63;;
291;SDS011;23311;48.776;9.162;2023-07-28T06:59:21;5.40;;;4.77;;
291;SDS011;23311;48.776;9.162;2023-07-28T07:01:49;6.60;;;4.43;;
291;SDS011;23311;48.776;9.162;2023-07-28T07:04:18;6.13;;;4.27;;
291;SDS011;23311;48.776;9.162;2023-07-28T07:06:47;6.90;;;4.60;;
291;SDS011;23311;48.776;9.162;2023-07-28T07:09:15;5.53;;;3.80;;
291;SDS011;23311;48.776;9.162;2023-07-28T07:11:43;4.43;;;3.27;;
291;SDS011;23311;48.776;9.162;2023-07-28T07:14:13;4.30;;;3.80;;
291;SDS011;23311;48.776;9.162;2023-07-28T07:16:41;6.43;;;4.30;;
291;SDS011;23311;48.776;9.162;2023-07-28T07:19:10;3.93;;;3.27;;
291;SDS011;23311;48.776;9.162;2023-07-28T07:21:39;5.10;;;3.57;;
291;SDS011;23311;48.776;9.162;2023-07-28T07:24:08;5.80;;;3.73;;
291;SDS011;23311;48.776;9.162;2023-07-28T07:26:39;5.30;;;3.90;;
291;SDS011;23311;48.776;9.162;2023-07-28T07:29:08;4.10;;;3.83;;
291;SDS011;23311;48.776;9.162;2023-07-28T07:31:37;3.30;;;3.00;;
291;SDS011;23311;48.776;9.162;2023-07-28T07:34:05;5.20;;;4.90;;
291;SDS011;23311;48.776;9.162;2023-07-28T07:36:34;4.83;;;4.60;;
291;SDS011;23311;48.776;9.162;2023-07-28T07:39:02;5.57;;;3.13;;
291;SDS011;23311;48.776;9.162;2023-07-28T07:41:31;3.73;;;3.23;;
291;SDS011;23311;48.776;9.162;2023-07-28T07:44:01;3.67;;;3.53;;
291;SDS011;23311;48.776;9.162;2023-07-28T07:46:29;3.73;;;3.60;;
291;SDS011;23311;48.776;9.162;2023-07-28T07:48:59;5.30;;;3.30;;
291;SDS011;23311;48.776;9.162;2023-07-28T07:51:27;4.80;;;4.00;;
291;SDS011;23311;48.776;9.162;2023-07-28T07:53:55;6.03;;;3.53;;
291;SDS011;23311;48.776;9.162;2023-07-28T07:56:23;4.27;;;3.77;;
291;SDS011;23311;48.776;9.162;2023-07-28T07:58:53;4.87;;;4.27;;
291;SDS011;23311;48.776;9.162;2023-07-28T08:01:21;4.13;;;3.20;;
291;SDS011;23311;48.776;9.162;2023-07-28T08:03:53;4.73;;;3.50;;
291;SDS011;23311;48.776;9.162;2023-07-28T08:06:22;3.30;;;3.13;;
291;SDS011;23311;48.776;9.162;2023-07-28T08:08:50;3.33;;;3.13;;
291;SDS011;23311;48.776;9.162;2023-07-28T08:11:20;4.23;;;3.17;;
291;SDS011;23311;48.776;9.162;2023-07-28T08:13:53;6.00;;;3.77;;
291;SDS011;23311;48.776;9.162;2023-07-28T08:16:23;5.70;;;4.07;;
291;SDS011;23311;48.776;9.162;2023-07-28T08:18:51;3.80;;;3.37;;
291;SDS011;23311;48.776;9.162;2023-07-28T08:21:20;4.53;;;3.27;;
291;SDS011;23311;48.776;9.162;2023-07-28T08:23:50;3.77;;;3.20;;
291;SDS011;23311;48.776;9.162;2023-07-28T08:26:18;3.00;;;2.70;;
291;SDS011;23311;48.776;9.162;2023-07-28T08:28:46;5.73;;;3.03;;
291;SDS011;23311;48.776;9.162;2023-07-28T08:31:15;4.03;;;3.43;;
291;SDS011;23311;48.776;9.162;2023-07-28T08:33:43;4.30;;;4.00;;
291;SDS011;23311;48.776;9.162;2023-07-28T08:36:11;4.77;;;3.67;;
291;SDS011;23311;48.776;9.162;2023-07-28T08:38:39;3.90;;;3.70;;
291;SDS011;23311;48.776;9.162;2023-07-28T08:41:09;4.60;;;3.60;;
291;SDS011;23311;48.776;9.162;2023-07-28T08:43:37;4.50;;;3.20;;
291;SDS011;23311;48.776;9.162;2023-07-28T08:46:07;3.50;;;3.30;;
291;SDS011;23311;48.776;9.162;2023-07-28T08:48:36;4.20;;;3.37;;
291;SDS011;23311;48.776;9.162;2023-07-28T08:51:04;3.90;;;3.50;;
291;SDS011;23311;48.776;9.162;2023-07-28T08:53:34;5.47;;;3.57;;
291;SDS011;23311;48.776;9.162;2023-07-28T08:56:03;2.97;;;2.80;;
291;SDS011;23311;48.776;9.162;2023-07-28T08:58:33;3.57;;;2.73;;
291;SDS011;23311;48.776;9.162;2023-07-28T09:01:02;3.83;;;2.93;;
291;SDS011;23311;48.776;9.162;2023-07-28T09:03:31;3.60;;;2.80;;
291;SDS011;23311;48.776;9.162;2023-07-28T09:06:07;4.37;;;2.57;;
291;SDS011;23311;48.776;9.162;2023-07-28T09:08:36;4.00;;;2.80;;
291;SDS011;23311;48.776;9.162;2023-07-28T09:11:05;4.70;;;2.50;;
291;SDS011;23311;48.776;9.162;2023-07-28T09:13:36;3.80;;;3.20;;
291;SDS011;23311;48.776;9.162;2023-07-28T09:16:06;2.83;;;2.47;;
291;SDS011;23311;48.776;9.162;2023-07-28T09:18:44;3.10;;;2.67;;
291;SDS011;23311;48.776;9.162;2023-07-28T09:21:15;3.87;;;2.90;;
291;SDS011;23311;48.776;9.162;2023-07-28T09:23:44;3.70;;;2.53;;
291;SDS011;23311;48.776;9.162;2023-07-28T09:26:13;4.10;;;2.90;;
291;SDS011;23311;48.776;9.162;2023-07-28T09:28:43;5.90;;;3.27;;
291;SDS011;23311;48.776;9.162;2023-07-28T09:31:12;5.23;;;2.83;;
291;SDS011;23311;48.776;9.162;2023-07-28T09:33:41;3.80;;;3.60;;
291;SDS011;23311;48.776;9.162;2023-07-28T09:36:13;5.60;;;4.30;;
291;SDS011;23311;48.776;9.162;2023-07-28T09:38:43;4.60;;;4.00;;
291;SDS011;23311;48.776;9.162;2023-07-28T09:41:12;6.10;;;4.43;;
291;SDS011;23311;48.776;9.162;2023-07-28T09:43:40;6.23;;;4.70;;
291;SDS011;23311;48.776;9.162;2023-07-28T09:46:12;8.00;;;5.07;;
291;SDS011;23311;48.776;9.162;2023-07-28T09:48:45;7.40;;;5.00;;
291;SDS011;23311;48.776;9.162;2023-07-28T09:51:18;5.60;;;5.03;;
291;SDS011;23311;48.776;9.162;2023-07-28T09:53:49;7.10;;;4.53;;
291;SDS011;23311;48.776;9.162;2023-07-28T09:56:22;5.70;;;3.73;;
291;SDS011;23311;48.776;9.162;2023-07-28T09:58:55;5.73;;;4.20;;
291;SDS011;23311;48.776;9.162;2023-07-28T10:01:26;4.57;;;3.57;;
291;SDS011;23311;48.776;9.162;2023-07-28T10:03:55;5.17;;;3.90;;
291;SDS011;23311;48.776;9.162;2023-07-28T10:06:23;4.00;;;3.40;;
291;SDS011;23311;48.776;9.162;2023-07-28T10:08:52;4.37;;;3.40;;
291;SDS011;23311;48.776;9.162;2023-07-28T10:11:20;4.53;;;3.90;;
291;SDS011;23311;48.776;9.162;2023-07-28T10:13:50;5.13;;;4.10;;
291;SDS011;23311;48.776;9.162;2023-07-28T10:16:30;4.50;;;3.90;;
291;SDS011;23311;48.776;9.162;2023-07-28T10:19:04;4.70;;;2.80;;
291;SDS011;23311;48.776;9.162;2023-07-28T10:21:32;4.87;;;3.40;;
291;SDS011;23311;48.776;9.162;2023-07-28T10:24:07;4.60;;;3.43;;
291;SDS011;23311;48.776;9.162;2023-07-28T10:26:36;5.53;;;3.80;;
291;SDS011;23311;48.776;9.162;2023-07-28T10:29:11;3.83;;;3.50;;
291;SDS011;23311;48.776;9.162;2023-07-28T10:31:52;4.00;;;3.80;;
291;SDS011;23311;48.776;9.162;2023-07-28T10:34:22;4.07;;;3.47;;
291;SDS011;23311;48.776;9.162;2023-07-28T10:36:57;4.07;;;3.50;;
291;SDS011;23311;48.776;9.162;2023-07-28T10:39:26;3.63;;;3.10;;
291;SDS011;23311;48.776;9.162;2023-07-28T10:41:59;3.93;;;3.00;;
291;SDS011;23311;48.776;9.162;2023-07-28T10:44:32;4.93;;;2.90;;
291;SDS011;23311;48.776;9.162;2023-07-28T10:47:04;3.60;;;3.07;;
291;SDS011;23311;48.776;9.162;2023-07-28T10:49:35;4.13;;;3.37;;
291;SDS011;23311;48.776;9.162;2023-07-28T10:52:03;3.23;;;2.33;;
291;SDS011;23311;48.776;9.162;2023-07-28T10:54:32;3.50;;;2.53;;
291;SDS011;23311;48.776;9.162;2023-07-28T10:57:02;2.80;;;2.70;;
291;SDS011;23311;48.776;9.162;2023-07-28T10:59:32;2.90;;;2.73;;
291;SDS011;23311;48.776;9.162;2023-07-28T11:02:08;4.80;;;2.20;;
291;SDS011;23311;48.776;9.162;2023-07-28T11:05:09;2.37;;;1.97;;
291;SDS011;23311;48.776;9.162;2023-07-28T11:07:40;2.20;;;1.73;;
291;SDS011;23311;48.776;9.162;2023-07-28T11:10:10;1.50;;;1.10;;
291;SDS011;23311;48.776;9.162;2023-07-28T11:12:39;1.67;;;1.33;;
291;SDS011;23311;48.776;9.162;2023-07-28T11:15:09;1.40;;;1.00;;
291;SDS011;23311;48.776;9.162;2023-07-28T11:17:40;1.67;;;1.13;;
291;SDS011;23311;48.776;9.162;2023-07-28T11:20:15;1.67;;;1.10;;
291;SDS011;23311;48.776;9.162;2023-07-28T11:22:44;1.80;;;1.43;;
291;SDS011;23311;48.776;9.162;2023-07-28T11:25:13;5.07;;;1.43;;
291;SDS011;23311;48.776;9.162;2023-07-28T11:27:41;1.50;;;1.10;;
291;SDS011;23311;48.776;9.162;2023-07-28T11:30:12;1.77;;;1.33;;
291;SDS011;23311;48.776;9.162;2023-07-28T11:32:51;2.00;;;1.70;;
291;SDS011;23311;48.776;9.162;2023-07-28T11:35:20;1.90;;;1.40;;
291;SDS011;23311;48.776;9.162;2023-07-28T11:37:50;1.80;;;1.50;;
291;SDS011;23311;48.776;9.162;2023-07-28T11:40:20;1.90;;;1.20;;
291;SDS011;23311;48.776;9.162;2023-07-28T11:42:50;1.40;;;1.07;;
291;SDS011;23311;48.776;9.162;2023-07-28T11:45:20;1.90;;;1.20;;
291;SDS011;23311;48.776;9.162;2023-07-28T11:47:57;2.07;;;1.57;;
291;SDS011;23311;48.776;9.162;2023-07-28T11:50:26;2.13;;;1.50;;
291;SDS011;23311;48.776;9.162;2023-07-28T11:52:56;1.60;;;1.10;;
291;SDS011;23311;48.776;9.162;2023-07-28T11:55:25;1.83;;;1.47;;
291;SDS011;23311;48.776;9.162;2023-07-28T11:57:53;2.27;;;1.30;;
291;SDS011;23311;48.776;9.162;2023-07-28T12:00:28;2.17;;;1.10;;
291;SDS011;23311;48.776;9.162;2023-07-28T12:03:07;2.03;;;1.50;;
291;SDS011;23311;48.776;9.162;2023-07-28T12:05:37;1.93;;;1.57;;
291;SDS011;23311;48.776;9.162;2023-07-28T12:08:09;3.30;;;2.27;;
291;SDS011;23311;48.776;9.162;2023-07-28T12:10:37;1.93;;;1.73;;
291;SDS011;23311;48.776;9.162;2023-07-28T12:13:24;2.60;;;2.00;;
291;SDS011;23311;48.776;9.162;2023-07-28T12:15:56;2.20;;;2.00;;
291;SDS011;23311;48.776;9.162;2023-07-28T12:18:30;2.40;;;1.87;;
291;SDS011;23311;48.776;9.162;2023-07-28T12:21:01;2.17;;;1.83;;
291;SDS011;23311;48.776;9.162;2023-07-28T12:23:29;3.30;;;2.20;;
291;SDS011;23311;48.776;9.162;2023-07-28T12:26:00;3.10;;;2.37;;
291;SDS011;23311;48.776;9.162;2023-07-28T12:28:28;3.57;;;2.23;;
291;SDS011;23311;48.776;9.162;2023-07-28T12:31:09;4.00;;;1.90;;
291;SDS011;23311;48.776;9.162;2023-07-28T12:33:38;3.90;;;2.00;;
291;SDS011;23311;48.776;9.162;2023-07-28T12:36:06;2.47;;;1.70;;
291;SDS011;23311;48.776;9.162;2023-07-28T12:38:37;2.53;;;2.37;;
291;SDS011;23311;48.776;9.162;2023-07-28T12:41:08;2.97;;;2.80;;
291;SDS011;23311;48.776;9.162;2023-07-28T12:43:36;3.27;;;2.30;;
291;SDS011;23311;48.776;9.162;2023-07-28T12:46:07;2.47;;;1.90;;
291;SDS011;23311;48.776;9.162;2023-07-28T12:48:38;2.10;;;1.60;;
291;SDS011;23311;48.776;9.162;2023-07-28T12:51:10;2.33;;;1.53;;
291;SDS011;23311;48.776;9.162;2023-07-28T12:53:38;2.70;;;1.43;;
291;SDS011;23311;48.776;9.162;2023-07-28T12:56:06;2.17;;;1.80;;
291;SDS011;23311;48.776;9.162;2023-07-28T12:58:34;2.60;;;2.23;;
291;SDS011;23311;48.776;9.162;2023-07-28T13:01:05;2.60;;;1.60;;
291;SDS011;23311;48.776;9.162;2023-07-28T13:03:34;2.23;;;1.80;;
291;SDS011;23311;48.776;9.162;2023-07-28T13:06:04;2.40;;;1.53;;
291;SDS011;23311;48.776;9.162;2023-07-28T13:08:32;2.40;;;1.87;;
291;SDS011;23311;48.776;9.162;2023-07-28T13:11:03;2.43;;;1.50;;
291;SDS011;23311;48.776;9.162;2023-07-28T13:13:34;3.07;;;1.80;;
291;SDS011;23311;48.776;9.162;2023-07-28T13:16:05;2.43;;;1.53;;
291;SDS011;23311;48.776;9.162;2023-07-28T13:18:38;2.23;;;1.73;;
291;SDS011;23311;48.776;9.162;2023-07-28T13:21:08;2.90;;;1.63;;
291;SDS011;23311;48.776;9.162;2023-07-28T13:23:37;2.53;;;1.70;;
291;SDS011;23311;48.776;9.162;2023-07-28T13:26:05;2.93;;;2.03;;
291;SDS011;23311;48.776;9.162;2023-07-28T13:28:34;3.30;;;2.07;;
291;SDS011;23311;48.776;9.162;2023-07-28T13:31:02;3.00;;;2.07;;
291;SDS011;23311;48.776;9.162;2023-07-28T13:33:31;2.70;;;2.20;;
291;SDS011;23311;48.776;9.162;2023-07-28T13:35:59;3.40;;;2.50;;
291;SDS011;23311;48.776;9.162;2023-07-28T13:38:31;2.60;;;2.37;;
291;SDS011;23311;48.776;9.162;2023-07-28T13:40:59;3.23;;;2.63;;
291;SDS011;23311;48.776;9.162;2023-07-28T13:43:28;3.80;;;2.47;;
291;SDS011;23311;48.776;9.162;2023-07-28T13:45:57;3.87;;;3.20;;
291;SDS011;23311;48.776;9.162;2023-07-28T13:48:25;3.80;;;3.10;;
291;SDS011;23311;48.776;9.162;2023-07-28T13:50:53;4.00;;;3.20;;
291;SDS011;23311;48.776;9.162;2023-07-28T13:53:22;6.67;;;4.33;;
291;SDS011;23311;48.776;9.162;2023-07-28T13:55:55;5.13;;;4.03;;
291;SDS011;23311;48.776;9.162;2023-07-28T13:58:24;6.20;;;5.00;;
291;SDS011;23311;48.776;9.162;2023-07-28T14:00:52;4.30;;;3.77;;
291;SDS011;23311;48.776;9.162;2023-07-28T14:03:20;4.87;;;3.33;;
291;SDS011;23311;48.776;9.162;2023-07-28T14:05:48;5.40;;;4.03;;
291;SDS011;23311;48.776;9.162;2023-07-28T14:08:16;5.37;;;4.17;;
291;SDS011;23311;48.776;9.162;2023-07-28T14:10:45;7.60;;;4.20;;
291;SDS011;23311;48.776;9.162;2023-07-28T14:13:15;7.53;;;5.37;;
291;SDS011;23311;48.776;9.162;2023-07-28T14:15:43;5.83;;;4.27;;
291;SDS011;23311;48.776;9.162;2023-07-28T14:18:11;7.50;;;5.97;;
291;SDS011;23311;48.776;9.162;2023-07-28T14:20:39;7.20;;;5.20;;
291;SDS011;23311;48.776;9.162;2023-07-28T14:23:19;5.03;;;4.63;;
291;SDS011;23311;48.776;9.162;2023-07-28T14:25:49;8.50;;;5.23;;
291;SDS011;23311;48.776;9.162;2023-07-28T14:28:19;5.13;;;4.77;;
291;SDS011;23311;48.776;9.162;2023-07-28T14:30:48;6.10;;;4.73;;
291;SDS011;23311;48.776;9.162;2023-07-28T14:33:18;7.57;;;5.40;;
291;SDS011;23311;48.776;9.162;2023-07-28T14:35:47;6.23;;;4.90;;
291;SDS011;23311;48.776;9.162;2023-07-28T14:38:16;5.20;;;4.30;;
291;SDS011;23311;48.776;9.162;2023-07-28T14:40:45;5.33;;;3.83;;
291;SDS011;23311;48.776;9.162;2023-07-28T14:43:16;6.57;;;4.77;;
291;SDS011;23311;48.776;9.162;2023-07-28T14:45:45;4.73;;;4.00;;
291;SDS011;23311;48.776;9.162;2023-07-28T14:48:13;3.70;;;3.27;;
291;SDS011;23311;48.776;9.162;2023-07-28T14:50:41;6.00;;;4.23;;
291;SDS011;23311;48.776;9.162;2023-07-28T14:53:31;5.53;;;4.37;;
291;SDS011;23311;48.776;9.162;2023-07-28T14:56:01;4.33;;;4.03;;
291;SDS011;23311;48.776;9.162;2023-07-28T14:58:31;4.53;;;4.23;;
291;SDS011;23311;48.776;9.162;2023-07-28T15:01:01;6.87;;;5.07;;
291;SDS011;23311;48.776;9.162;2023-07-28T15:03:31;4.20;;;3.70;;
291;SDS011;23311;48.776;9.162;2023-07-28T15:05:59;4.83;;;4.30;;
291;SDS011;23311;48.776;9.162;2023-07-28T15:08:28;5.10;;;4.17;;
291;SDS011;23311;48.776;9.162;2023-07-28T15:10:58;5.03;;;3.93;;
291;SDS011;23311;48.776;9.162;2023-07-28T15:13:26;4.93;;;3.57;;
291;SDS011;23311;48.776;9.162;2023-07-28T15:15:54;5.00;;;3.97;;
291;SDS011;23311;48.776;9.162;2023-07-28T15:18:24;4.87;;;4.03;;
291;SDS011;23311;48.776;9.162;2023-07-28T15:20:52;5.37;;;3.83;;
291;SDS011;23311;48.776;9.162;2023-07-28T15:23:22;5.73;;;4.10;;
291;SDS011;23311;48.776;9.162;2023-07-28T15:25:50;5.40;;;3.70;;
291;SDS011;23311;48.776;9.162;2023-07-28T15:28:19;4.27;;;4.00;;